Time;durP1;ratioP1;P1;durP2;ratioP2;P2;SDS_P1;SDS_P2;PMS_P1;PMS_P2;Temp;Humidity;BMP_temperature;BMP_pressure;BME280_temperature;BME280_humidity;BME280_pressure;Samples;Min_cycle;Max_cycle;Signal;HPM_P1;HPM_P2
2021/08/13 00:02:25;;;;;;;6.90;5.90;;;;;;;;;;5055948;28;20449;-70
2021/08/13 00:04:53;;;;;;;7.80;6.97;;;;;;;;;;5059111;28;20473;-70
2021/08/13 00:07:21;;;;;;;8.33;6.90;;;;;;;;;;5059091;28;20499;-70
2021/08/13 00:09:53;;;;;;;10.17;7.50;;;;;;;;;;5056021;28;20745;-70
2021/08/13 00:12:21;;;;;;;6.80;5.93;;;;;;;;;;5058752;28;20505;-70
2021/08/13 00:14:49;;;;;;;8.33;6.97;;;;;;;;;;5058791;28;20457;-70
2021/08/13 00:17:17;;;;;;;7.83;6.90;;;;;;;;;;5058475;28;20774;-70
2021/08/13 00:19:45;;;;;;;8.37;7.13;;;;;;;;;;5058653;28;20552;-70
2021/08/13 00:22:16;;;;;;;8.33;6.87;;;;;;;;;;5050451;28;20554;-70
2021/08/13 00:24:44;;;;;;;14.67;6.53;;;;;;;;;;5056376;28;20897;-70
2021/08/13 00:27:16;;;;;;;8.83;6.87;;;;;;;;;;5055775;28;20450;-70
2021/08/13 00:29:44;;;;;;;9.53;7.20;;;;;;;;;;5056058;28;20460;-70
2021/08/13 00:32:14;;;;;;;7.83;7.00;;;;;;;;;;5055102;28;20531;-69
2021/08/13 00:34:41;;;;;;;8.13;6.80;;;;;;;;;;5058120;28;20477;-71
2021/08/13 00:37:09;;;;;;;8.90;7.37;;;;;;;;;;5055033;28;20452;-70
2021/08/13 00:39:38;;;;;;;11.93;7.83;;;;;;;;;;5056935;28;20967;-69
2021/08/13 00:42:05;;;;;;;11.20;7.30;;;;;;;;;;5057188;28;20489;-70
2021/08/13 00:44:37;;;;;;;10.20;7.50;;;;;;;;;;5055513;28;20453;-70
2021/08/13 00:47:05;;;;;;;7.00;6.30;;;;;;;;;;5052029;28;20516;-70
2021/08/13 00:49:36;;;;;;;7.13;6.43;;;;;;;;;;5054155;28;20549;-70
2021/08/13 00:52:04;;;;;;;8.17;7.07;;;;;;;;;;5057059;28;20465;-68
2021/08/13 00:54:32;;;;;;;8.53;7.20;;;;;;;;;;5057844;28;20899;-70
2021/08/13 00:57:00;;;;;;;13.27;7.20;;;;;;;;;;5055559;28;20454;-70
2021/08/13 00:59:28;;;;;;;9.97;7.27;;;;;;;;;;5057433;28;20773;-69
2021/08/13 01:01:57;;;;;;;10.57;7.63;;;;;;;;;;5053382;28;20474;-70
2021/08/13 01:04:25;;;;;;;8.77;7.50;;;;;;;;;;5056321;28;20461;-70
2021/08/13 01:06:56;;;;;;;10.00;7.83;;;;;;;;;;5057879;28;20508;-70
2021/08/13 01:09:24;;;;;;;8.63;7.17;;;;;;;;;;5056822;28;20472;-70
2021/08/13 01:11:56;;;;;;;11.20;7.07;;;;;;;;;;5057893;28;20537;-70
2021/08/13 01:14:30;;;;;;;9.97;7.63;;;;;;;;;;5057488;28;20474;-70
2021/08/13 01:16:59;;;;;;;9.03;7.00;;;;;;;;;;5057588;28;20446;-70
2021/08/13 01:19:36;;;;;;;9.50;7.43;;;;;;;;;;5057200;28;20489;-70
2021/08/13 01:22:07;;;;;;;8.30;7.40;;;;;;;;;;5057177;28;20836;-70
2021/08/13 01:24:44;;;;;;;9.60;6.83;;;;;;;;;;5055176;28;20739;-70
2021/08/13 01:27:14;;;;;;;8.03;6.67;;;;;;;;;;5056440;28;20453;-70
2021/08/13 01:29:49;;;;;;;10.43;7.33;;;;;;;;;;5057289;28;20544;-71
2021/08/13 01:32:37;;;;;;;10.77;7.20;;;;;;;;;;5057443;28;20519;-70
2021/08/13 01:35:08;;;;;;;7.77;6.50;;;;;;;;;;5052436;28;20497;-70
2021/08/13 01:37:40;;;;;;;7.23;6.50;;;;;;;;;;5053297;28;20441;-70
2021/08/13 01:40:10;;;;;;;7.50;6.20;;;;;;;;;;5057212;28;20872;-70
2021/08/13 01:42:38;;;;;;;7.20;6.47;;;;;;;;;;5057574;28;20524;-70
2021/08/13 01:45:06;;;;;;;9.23;7.10;;;;;;;;;;5056619;28;20499;-70
2021/08/13 01:47:34;;;;;;;7.97;6.70;;;;;;;;;;5056631;28;20455;-70
2021/08/13 01:50:03;;;;;;;7.70;6.90;;;;;;;;;;5057430;28;20548;-70
2021/08/13 01:52:32;;;;;;;8.50;7.10;;;;;;;;;;5057457;28;20445;-70
2021/08/13 01:54:59;;;;;;;9.50;7.40;;;;;;;;;;5057490;28;20734;-70
2021/08/13 01:57:27;;;;;;;7.77;6.33;;;;;;;;;;5057337;28;20449;-70
2021/08/13 01:59:55;;;;;;;10.20;7.17;;;;;;;;;;5056547;28;20527;-70
2021/08/13 02:02:23;;;;;;;7.87;6.87;;;;;;;;;;5051774;28;20536;-70
2021/08/13 02:04:52;;;;;;;10.67;7.57;;;;;;;;;;5056408;28;20553;-70
2021/08/13 02:07:23;;;;;;;7.10;6.20;;;;;;;;;;5057030;28;20457;-70
2021/08/13 02:09:52;;;;;;;9.10;6.93;;;;;;;;;;5048510;28;20494;-70
2021/08/13 02:12:20;;;;;;;10.83;7.30;;;;;;;;;;5056738;28;20473;-70
2021/08/13 02:14:54;;;;;;;9.90;6.97;;;;;;;;;;5056708;28;20861;-70
2021/08/13 02:17:22;;;;;;;8.30;6.73;;;;;;;;;;5057057;28;20481;-69
2021/08/13 02:19:53;;;;;;;11.10;6.83;;;;;;;;;;5057010;28;20543;-70
2021/08/13 02:22:21;;;;;;;9.97;7.93;;;;;;;;;;5055801;28;20496;-69
2021/08/13 02:24:49;;;;;;;9.13;7.73;;;;;;;;;;5056913;28;20468;-70
2021/08/13 02:27:18;;;;;;;13.73;7.43;;;;;;;;;;5056750;28;20457;-69
2021/08/13 02:29:45;;;;;;;7.77;6.30;;;;;;;;;;5056833;28;20546;-69
2021/08/13 02:32:13;;;;;;;8.90;7.20;;;;;;;;;;5056200;28;20454;-69
2021/08/13 02:34:41;;;;;;;10.77;7.50;;;;;;;;;;5057266;28;21100;-70
2021/08/13 02:37:12;;;;;;;7.93;6.97;;;;;;;;;;5057274;28;20508;-69
2021/08/13 02:39:41;;;;;;;9.10;7.00;;;;;;;;;;5056058;28;20466;-69
2021/08/13 02:42:11;;;;;;;8.13;6.60;;;;;;;;;;5056511;28;20736;-70
2021/08/13 02:44:41;;;;;;;8.90;7.30;;;;;;;;;;5055660;28;20449;-70
2021/08/13 02:47:11;;;;;;;10.23;7.80;;;;;;;;;;5056370;28;20868;-70
2021/08/13 02:49:45;;;;;;;8.53;6.80;;;;;;;;;;5069363;28;20557;-69
2021/08/13 02:52:15;;;;;;;8.80;7.90;;;;;;;;;;5055522;28;20714;-69
2021/08/13 02:54:44;;;;;;;7.77;6.90;;;;;;;;;;5055375;28;20761;-69
2021/08/13 02:57:12;;;;;;;11.07;8.03;;;;;;;;;;5056090;28;20448;-70
2021/08/13 02:59:42;;;;;;;9.60;7.33;;;;;;;;;;5056361;28;20464;-69
2021/08/13 03:02:10;;;;;;;10.50;6.70;;;;;;;;;;5055593;28;20488;-70
2021/08/13 03:04:39;;;;;;;8.73;7.37;;;;;;;;;;5056093;28;20510;-70
2021/08/13 03:07:07;;;;;;;8.60;7.70;;;;;;;;;;5056316;28;20794;-70
2021/08/13 03:09:35;;;;;;;8.67;7.30;;;;;;;;;;5055751;28;20955;-70
2021/08/13 03:12:03;;;;;;;12.07;7.87;;;;;;;;;;5056487;28;20461;-70
2021/08/13 03:14:31;;;;;;;8.13;7.03;;;;;;;;;;5055637;28;20485;-69
2021/08/13 03:17:00;;;;;;;9.70;7.40;;;;;;;;;;5056002;28;20757;-69
2021/08/13 03:19:28;;;;;;;10.73;8.00;;;;;;;;;;5056046;28;20519;-69
2021/08/13 03:21:56;;;;;;;8.90;7.37;;;;;;;;;;5055794;28;20537;-70
2021/08/13 03:24:24;;;;;;;10.90;7.73;;;;;;;;;;5055484;28;20949;-70
2021/08/13 03:26:54;;;;;;;8.67;7.77;;;;;;;;;;5056194;28;20450;-69
2021/08/13 03:29:22;;;;;;;13.20;7.90;;;;;;;;;;5055915;28;20445;-70
2021/08/13 03:31:50;;;;;;;11.13;8.67;;;;;;;;;;5055493;28;20876;-70
2021/08/13 03:34:20;;;;;;;8.40;7.53;;;;;;;;;;5059218;28;20520;-69
2021/08/13 03:36:47;;;;;;;8.87;7.57;;;;;;;;;;5059721;28;20873;-70
2021/08/13 03:39:15;;;;;;;8.60;7.27;;;;;;;;;;5059025;28;20469;-70
2021/08/13 03:41:43;;;;;;;11.57;8.33;;;;;;;;;;5059857;28;20544;-69
2021/08/13 03:44:11;;;;;;;10.60;8.27;;;;;;;;;;5059597;28;20481;-69
2021/08/13 03:46:38;;;;;;;13.20;7.63;;;;;;;;;;5059572;28;20507;-70
2021/08/13 03:49:07;;;;;;;8.73;7.93;;;;;;;;;;5059706;28;20905;-70
2021/08/13 03:51:36;;;;;;;9.87;8.00;;;;;;;;;;5059252;28;20741;-69
2021/08/13 03:54:06;;;;;;;9.17;8.33;;;;;;;;;;5059165;28;20485;-70
2021/08/13 03:56:34;;;;;;;8.80;7.70;;;;;;;;;;5059482;28;20453;-69
2021/08/13 03:59:02;;;;;;;9.50;7.93;;;;;;;;;;5059238;28;20804;-69
2021/08/13 04:01:30;;;;;;;10.10;8.43;;;;;;;;;;5058684;28;20464;-69
2021/08/13 04:03:59;;;;;;;9.70;8.33;;;;;;;;;;5058805;28;20744;-69
2021/08/13 04:06:27;;;;;;;9.83;8.83;;;;;;;;;;5058784;28;20476;-69
2021/08/13 04:08:56;;;;;;;9.30;8.40;;;;;;;;;;5071884;28;20575;-69
2021/08/13 04:11:24;;;;;;;8.73;7.70;;;;;;;;;;5059622;28;20485;-69
2021/08/13 04:13:52;;;;;;;10.90;9.27;;;;;;;;;;5059033;28;20496;-69
2021/08/13 04:16:21;;;;;;;12.73;8.20;;;;;;;;;;5057072;28;20457;-69
2021/08/13 04:18:48;;;;;;;13.40;9.70;;;;;;;;;;5058324;28;20863;-69
2021/08/13 04:21:16;;;;;;;15.20;9.37;;;;;;;;;;5058350;28;20473;-69
2021/08/13 04:23:44;;;;;;;10.93;8.40;;;;;;;;;;5057985;28;20454;-69
2021/08/13 04:26:13;;;;;;;11.77;8.60;;;;;;;;;;5056849;28;20571;-69
2021/08/13 04:28:41;;;;;;;12.97;8.83;;;;;;;;;;5058723;28;20547;-69
2021/08/13 04:31:08;;;;;;;12.30;9.17;;;;;;;;;;5058363;28;20469;-69
2021/08/13 04:33:37;;;;;;;10.47;7.40;;;;;;;;;;5057131;28;20586;-70
2021/08/13 04:36:04;;;;;;;10.33;8.30;;;;;;;;;;5058663;28;20964;-69
2021/08/13 04:38:32;;;;;;;11.57;8.43;;;;;;;;;;5058998;28;21017;-69
2021/08/13 04:41:00;;;;;;;9.00;8.10;;;;;;;;;;5057490;28;20450;-69
2021/08/13 04:43:29;;;;;;;10.70;8.00;;;;;;;;;;5058322;28;20531;-68
2021/08/13 04:45:57;;;;;;;10.80;8.30;;;;;;;;;;5057350;28;20532;-69
2021/08/13 04:48:24;;;;;;;9.70;8.63;;;;;;;;;;5058684;28;20793;-69
2021/08/13 04:50:52;;;;;;;10.77;8.50;;;;;;;;;;5058015;28;20484;-69
2021/08/13 04:53:20;;;;;;;10.90;8.30;;;;;;;;;;5057694;28;20457;-69
2021/08/13 04:55:48;;;;;;;12.70;9.33;;;;;;;;;;5057781;28;20720;-69
2021/08/13 04:58:16;;;;;;;11.10;8.57;;;;;;;;;;5038434;28;20565;-70
2021/08/13 05:00:47;;;;;;;10.40;8.17;;;;;;;;;;5044576;28;20453;-70
2021/08/13 05:03:15;;;;;;;10.47;9.40;;;;;;;;;;5057857;28;20457;-70
2021/08/13 05:05:43;;;;;;;12.10;9.53;;;;;;;;;;5057534;28;20441;-70
2021/08/13 05:08:11;;;;;;;12.33;9.30;;;;;;;;;;5051349;28;20812;-69
2021/08/13 05:10:40;;;;;;;10.87;9.67;;;;;;;;;;5057625;28;20458;-69
2021/08/13 05:13:07;;;;;;;11.23;8.73;;;;;;;;;;5057071;28;20540;-70
2021/08/13 05:15:35;;;;;;;13.00;9.07;;;;;;;;;;5057478;28;20477;-70
2021/08/13 05:18:07;;;;;;;9.80;8.80;;;;;;;;;;5054915;28;20466;-70
2021/08/13 05:20:35;;;;;;;8.67;7.53;;;;;;;;;;5057300;28;20450;-70
2021/08/13 05:23:03;;;;;;;11.27;8.50;;;;;;;;;;5057423;28;20461;-70
2021/08/13 05:25:30;;;;;;;12.00;8.37;;;;;;;;;;5056738;28;20927;-69
2021/08/13 05:27:58;;;;;;;9.17;7.93;;;;;;;;;;5057597;28;20575;-69
2021/08/13 05:30:26;;;;;;;9.00;8.10;;;;;;;;;;5057219;28;20979;-70
2021/08/13 05:32:54;;;;;;;12.53;8.23;;;;;;;;;;5055960;28;20457;-70
2021/08/13 05:35:26;;;;;;;8.43;7.43;;;;;;;;;;5056842;28;20622;-70
2021/08/13 05:37:54;;;;;;;9.13;7.40;;;;;;;;;;5057272;28;20449;-70
2021/08/13 05:40:21;;;;;;;10.40;7.53;;;;;;;;;;5056638;28;20465;-70
2021/08/13 05:42:49;;;;;;;9.20;7.60;;;;;;;;;;5055643;28;20450;-70
2021/08/13 05:45:17;;;;;;;9.70;8.60;;;;;;;;;;5054474;28;20466;-70
2021/08/13 05:47:45;;;;;;;10.23;7.47;;;;;;;;;;5055336;28;20524;-70
2021/08/13 05:50:15;;;;;;;9.47;8.40;;;;;;;;;;5057144;28;20457;-70
2021/08/13 05:52:45;;;;;;;12.43;8.40;;;;;;;;;;5054689;28;20473;-71
2021/08/13 05:55:13;;;;;;;15.53;9.03;;;;;;;;;;5055475;28;20959;-71
2021/08/13 05:57:42;;;;;;;9.27;8.27;;;;;;;;;;5055282;28;20453;-71
2021/08/13 06:00:13;;;;;;;10.23;7.37;;;;;;;;;;5057224;28;20489;-70
2021/08/13 06:02:51;;;;;;;12.03;8.90;;;;;;;;;;5074687;28;20467;-70
2021/08/13 06:05:19;;;;;;;8.23;7.27;;;;;;;;;;5071319;28;20464;-70
2021/08/13 06:07:48;;;;;;;9.07;7.20;;;;;;;;;;5076257;28;20449;-70
2021/08/13 06:10:16;;;;;;;15.20;8.07;;;;;;;;;;5076317;28;20803;-70
2021/08/13 06:12:44;;;;;;;7.33;6.43;;;;;;;;;;5076381;28;20551;-71
2021/08/13 06:15:12;;;;;;;8.30;7.33;;;;;;;;;;5076167;28;20483;-71
2021/08/13 06:17:42;;;;;;;11.20;8.10;;;;;;;;;;5058361;28;20883;-70
2021/08/13 06:20:11;;;;;;;10.37;8.50;;;;;;;;;;5054913;28;20500;-71
2021/08/13 06:22:39;;;;;;;9.30;7.57;;;;;;;;;;5055555;28;20792;-71
2021/08/13 06:25:08;;;;;;;8.70;7.57;;;;;;;;;;5055500;28;20958;-71
2021/08/13 06:27:36;;;;;;;8.37;6.87;;;;;;;;;;5055628;28;20461;-70
2021/08/13 06:30:04;;;;;;;8.97;7.30;;;;;;;;;;5055629;28;20449;-71
2021/08/13 06:32:32;;;;;;;7.90;6.67;;;;;;;;;;5055498;28;20864;-71
2021/08/13 06:35:00;;;;;;;10.47;8.83;;;;;;;;;;5055306;28;20927;-71
2021/08/13 06:37:30;;;;;;;9.77;7.37;;;;;;;;;;5054769;28;20953;-71
2021/08/13 06:39:59;;;;;;;8.70;6.80;;;;;;;;;;5055724;28;20453;-71
2021/08/13 06:42:28;;;;;;;9.57;7.13;;;;;;;;;;5054694;28;20461;-71
2021/08/13 06:44:56;;;;;;;9.77;6.23;;;;;;;;;;5054634;28;20903;-71
2021/08/13 06:47:24;;;;;;;12.17;7.33;;;;;;;;;;5054940;28;20485;-71
2021/08/13 06:49:51;;;;;;;9.90;6.73;;;;;;;;;;5054345;28;20496;-71
2021/08/13 06:52:20;;;;;;;8.80;7.53;;;;;;;;;;5055138;28;20829;-71
2021/08/13 06:54:47;;;;;;;8.20;6.67;;;;;;;;;;5055310;28;20944;-71
2021/08/13 06:57:15;;;;;;;8.37;6.90;;;;;;;;;;5055150;28;20461;-71
2021/08/13 06:59:45;;;;;;;8.70;6.80;;;;;;;;;;5054643;28;20469;-71
2021/08/13 07:02:13;;;;;;;6.33;5.60;;;;;;;;;;5054980;28;20537;-71
2021/08/13 07:04:40;;;;;;;7.03;5.47;;;;;;;;;;5056143;28;20465;-71
2021/08/13 07:07:11;;;;;;;7.73;6.30;;;;;;;;;;5054464;28;20536;-71
2021/08/13 07:09:38;;;;;;;7.77;6.27;;;;;;;;;;5053799;28;20464;-71
2021/08/13 07:12:06;;;;;;;7.30;6.17;;;;;;;;;;5050718;28;20457;-71
2021/08/13 07:14:35;;;;;;;10.70;7.17;;;;;;;;;;5053593;28;20940;-71
2021/08/13 07:17:05;;;;;;;9.73;7.10;;;;;;;;;;5054856;28;20745;-70
2021/08/13 07:19:34;;;;;;;8.50;6.53;;;;;;;;;;5054395;28;20458;-71
2021/08/13 07:22:02;;;;;;;5.90;5.20;;;;;;;;;;5054378;28;20468;-70
2021/08/13 07:24:31;;;;;;;10.33;7.33;;;;;;;;;;5053040;28;20461;-70
2021/08/13 07:26:59;;;;;;;11.17;5.23;;;;;;;;;;5055700;28;20903;-70
2021/08/13 07:29:29;;;;;;;6.47;5.47;;;;;;;;;;5053601;28;20458;-70
2021/08/13 07:31:57;;;;;;;6.80;5.60;;;;;;;;;;5054515;28;20461;-70
2021/08/13 07:34:27;;;;;;;8.60;5.77;;;;;;;;;;5054353;28;20516;-70
2021/08/13 07:36:57;;;;;;;7.87;5.17;;;;;;;;;;5054681;28;20556;-72
2021/08/13 07:39:25;;;;;;;6.77;5.33;;;;;;;;;;5053778;28;20526;-71
2021/08/13 07:41:53;;;;;;;6.53;4.50;;;;;;;;;;5045199;28;20477;-71
2021/08/13 07:44:21;;;;;;;7.47;5.30;;;;;;;;;;5054669;28;20473;-71
2021/08/13 07:46:49;;;;;;;6.83;5.30;;;;;;;;;;5053714;28;20842;-72
2021/08/13 07:49:23;;;;;;;8.10;5.10;;;;;;;;;;5054909;28;20527;-70
2021/08/13 07:51:56;;;;;;;6.83;5.40;;;;;;;;;;5054805;28;20461;-71
2021/08/13 07:57:15;;;;;;;6.80;4.27;;;;;;;;;;5053941;28;20511;-71
2021/08/13 07:59:43;;;;;;;9.30;4.97;;;;;;;;;;5052780;28;20457;-70
2021/08/13 08:02:11;;;;;;;6.87;5.40;;;;;;;;;;5055362;28;20484;-70
2021/08/13 08:04:38;;;;;;;11.53;6.60;;;;;;;;;;5053446;28;20445;-71
2021/08/13 08:07:07;;;;;;;13.23;6.03;;;;;;;;;;5052542;28;20464;-71
2021/08/13 08:09:38;;;;;;;6.90;5.17;;;;;;;;;;5053761;28;20461;-71
2021/08/13 08:12:09;;;;;;;5.90;4.67;;;;;;;;;;5053119;28;20445;-71
2021/08/13 08:14:37;;;;;;;10.00;5.77;;;;;;;;;;5051129;28;20477;-71
2021/08/13 08:17:05;;;;;;;7.77;5.90;;;;;;;;;;5053998;28;20539;-71
2021/08/13 08:19:36;;;;;;;7.60;5.20;;;;;;;;;;5054574;28;20734;-71
2021/08/13 08:22:06;;;;;;;5.50;4.70;;;;;;;;;;5057785;28;20865;-70
2021/08/13 08:24:36;;;;;;;6.67;4.97;;;;;;;;;;5057393;28;20464;-71
2021/08/13 08:27:04;;;;;;;7.23;5.83;;;;;;;;;;5059321;28;20472;-71
2021/08/13 08:29:33;;;;;;;8.23;4.57;;;;;;;;;;5058376;28;20462;-70
2021/08/13 08:32:01;;;;;;;7.40;5.40;;;;;;;;;;5059327;28;20450;-70
2021/08/13 08:34:32;;;;;;;7.30;6.30;;;;;;;;;;5058436;28;20696;-71
2021/08/13 08:37:05;;;;;;;10.53;5.97;;;;;;;;;;5054445;28;20450;-70
2021/08/13 08:39:32;;;;;;;8.23;5.93;;;;;;;;;;5058824;28;20811;-71
2021/08/13 08:42:03;;;;;;;7.10;5.90;;;;;;;;;;5057599;28;20450;-71
2021/08/13 08:44:31;;;;;;;10.17;5.90;;;;;;;;;;5057560;28;20454;-71
2021/08/13 08:47:00;;;;;;;8.33;6.80;;;;;;;;;;5056060;28;20461;-71
2021/08/13 08:49:27;;;;;;;8.30;6.03;;;;;;;;;;5055982;28;20538;-71
2021/08/13 08:51:56;;;;;;;8.73;6.20;;;;;;;;;;5056489;28;20768;-70
2021/08/13 08:54:26;;;;;;;10.77;6.33;;;;;;;;;;5056371;28;20462;-70
2021/08/13 08:56:54;;;;;;;7.07;5.03;;;;;;;;;;5056549;28;20445;-70
2021/08/13 08:59:26;;;;;;;9.47;5.67;;;;;;;;;;5057180;28;20461;-70
2021/08/13 09:01:54;;;;;;;7.77;5.63;;;;;;;;;;5056128;28;20442;-70
2021/08/13 09:04:22;;;;;;;8.40;6.77;;;;;;;;;;5055162;28;20584;-70
2021/08/13 09:06:50;;;;;;;8.93;5.80;;;;;;;;;;5056738;28;20476;-71
2021/08/13 09:09:21;;;;;;;11.27;6.00;;;;;;;;;;5054976;28;20555;-70
2021/08/13 09:11:51;;;;;;;8.10;6.03;;;;;;;;;;5056370;28;20532;-70
2021/08/13 09:14:19;;;;;;;12.40;6.67;;;;;;;;;;5056059;28;20824;-71
2021/08/13 09:17:08;;;;;;;8.43;5.57;;;;;;;;;;5055888;28;20496;-70
2021/08/13 09:19:44;;;;;;;7.63;6.17;;;;;;;;;;5055143;28;20484;-70
2021/08/13 09:22:17;;;;;;;7.70;6.43;;;;;;;;;;5055631;28;20461;-69
2021/08/13 09:24:47;;;;;;;7.03;5.77;;;;;;;;;;5056441;28;20481;-70
2021/08/13 09:27:25;;;;;;;8.70;6.20;;;;;;;;;;5056189;28;21055;-69
2021/08/13 09:30:09;;;;;;;7.07;5.47;;;;;;;;;;5056812;28;20895;-71
2021/08/13 09:32:40;;;;;;;7.70;5.70;;;;;;;;;;5055345;28;20741;-70
2021/08/13 09:35:08;;;;;;;7.07;5.20;;;;;;;;;;5055967;28;20577;-69
2021/08/13 09:37:37;;;;;;;7.53;6.53;;;;;;;;;;5055923;28;20811;-69
2021/08/13 09:40:05;;;;;;;10.13;6.23;;;;;;;;;;5055715;28;20458;-70
2021/08/13 09:42:37;;;;;;;9.50;6.73;;;;;;;;;;5048031;28;20893;-70
2021/08/13 09:45:06;;;;;;;7.70;5.80;;;;;;;;;;5055476;28;20458;-70
2021/08/13 09:47:46;;;;;;;8.03;6.90;;;;;;;;;;5053896;28;20527;-70
2021/08/13 09:50:14;;;;;;;9.70;5.20;;;;;;;;;;5054885;28;20606;-70
2021/08/13 09:52:43;;;;;;;7.37;5.70;;;;;;;;;;5055496;28;20529;-71
2021/08/13 09:55:12;;;;;;;6.40;5.47;;;;;;;;;;5055541;28;20481;-70
2021/08/13 09:57:42;;;;;;;8.60;5.83;;;;;;;;;;5055399;28;20552;-70
2021/08/13 10:00:11;;;;;;;7.10;5.20;;;;;;;;;;5054919;28;20557;-70
2021/08/13 10:02:46;;;;;;;10.73;7.17;;;;;;;;;;5052952;28;20457;-71
2021/08/13 10:05:23;;;;;;;7.20;5.50;;;;;;;;;;5053553;28;20451;-72
2021/08/13 10:07:51;;;;;;;6.60;5.80;;;;;;;;;;5054620;28;20464;-72
2021/08/13 10:10:24;;;;;;;8.90;5.90;;;;;;;;;;5054211;28;20458;-71
2021/08/13 10:12:52;;;;;;;8.10;6.23;;;;;;;;;;5053787;28;20453;-71
2021/08/13 10:15:37;;;;;;;8.47;6.00;;;;;;;;;;5054866;28;20509;-72
2021/08/13 10:18:06;;;;;;;8.57;5.20;;;;;;;;;;5053089;28;21084;-71
2021/08/13 10:20:37;;;;;;;7.70;6.83;;;;;;;;;;5054434;28;21064;-71
2021/08/13 10:23:06;;;;;;;7.27;5.77;;;;;;;;;;5053184;28;20450;-72
2021/08/13 10:25:33;;;;;;;9.30;6.37;;;;;;;;;;5054533;28;20462;-71
2021/08/13 10:28:02;;;;;;;8.13;6.33;;;;;;;;;;5053664;28;20511;-71
2021/08/13 10:30:33;;;;;;;6.73;5.80;;;;;;;;;;5053790;28;20489;-71
2021/08/13 10:33:07;;;;;;;8.13;5.97;;;;;;;;;;5035531;28;20921;-71
2021/08/13 10:35:42;;;;;;;7.23;5.73;;;;;;;;;;5051978;28;20485;-71
2021/08/13 10:38:11;;;;;;;9.57;5.97;;;;;;;;;;5053916;28;20537;-72
2021/08/13 10:40:41;;;;;;;8.23;6.50;;;;;;;;;;5053426;28;20457;-72
2021/08/13 10:43:12;;;;;;;12.00;6.60;;;;;;;;;;5054357;28;20452;-72
2021/08/13 10:45:48;;;;;;;12.67;6.73;;;;;;;;;;5054135;28;20461;-71
2021/08/13 10:48:17;;;;;;;10.00;6.03;;;;;;;;;;5053647;28;20488;-71
2021/08/13 10:50:49;;;;;;;6.93;5.40;;;;;;;;;;5053938;28;20542;-71
2021/08/13 10:53:28;;;;;;;5.77;5.20;;;;;;;;;;5054339;28;20465;-71
2021/08/13 10:55:59;;;;;;;6.43;5.27;;;;;;;;;;5053569;28;20487;-72
2021/08/13 10:58:48;;;;;;;8.80;5.70;;;;;;;;;;5052160;28;20777;-72
2021/08/13 11:01:17;;;;;;;8.50;5.50;;;;;;;;;;5053704;28;20446;-71
2021/08/13 11:03:45;;;;;;;14.00;11.50;;;;;;;;;;5054242;28;20461;-71
2021/08/13 11:06:18;;;;;;;15.30;10.50;;;;;;;;;;5054001;28;20751;-71
2021/08/13 11:09:01;;;;;;;10.13;7.73;;;;;;;;;;5054733;28;20450;-72
2021/08/13 11:11:50;;;;;;;9.80;7.07;;;;;;;;;;5054490;28;20519;-70
2021/08/13 11:14:25;;;;;;;7.23;6.13;;;;;;;;;;5052882;28;20473;-70
2021/08/13 11:16:54;;;;;;;8.07;6.10;;;;;;;;;;5034562;28;20517;-71
2021/08/13 11:19:23;;;;;;;8.40;6.10;;;;;;;;;;5053677;28;20490;-72
2021/08/13 11:21:58;;;;;;;7.20;6.03;;;;;;;;;;5054955;28;20464;-71
2021/08/13 11:24:27;;;;;;;7.23;6.53;;;;;;;;;;5054291;28;20463;-73
2021/08/13 11:27:18;;;;;;;8.30;6.00;;;;;;;;;;5056928;28;20461;-71
2021/08/13 11:29:46;;;;;;;7.80;5.33;;;;;;;;;;5055238;28;20453;-71
2021/08/13 11:32:27;;;;;;;7.83;6.50;;;;;;;;;;5053307;28;20453;-72
2021/08/13 11:34:58;;;;;;;7.60;5.37;;;;;;;;;;5053429;28;20445;-72
2021/08/13 11:37:44;;;;;;;7.63;5.30;;;;;;;;;;5052777;28;20481;-72
2021/08/13 11:40:31;;;;;;;8.73;6.37;;;;;;;;;;5055123;28;20544;-72
2021/08/13 11:43:03;;;;;;;7.80;5.97;;;;;;;;;;5055186;28;20465;-71
2021/08/13 11:45:40;;;;;;;7.73;6.30;;;;;;;;;;5066189;28;20474;-72
2021/08/13 11:48:10;;;;;;;9.93;6.00;;;;;;;;;;5056251;28;20453;-71
2021/08/13 11:50:39;;;;;;;7.23;6.10;;;;;;;;;;5055812;28;20886;-73
2021/08/13 11:53:07;;;;;;;6.60;5.57;;;;;;;;;;5063817;28;20472;-71
2021/08/13 11:55:40;;;;;;;6.97;5.50;;;;;;;;;;5061187;28;20437;-72
2021/08/13 11:58:22;;;;;;;7.87;7.07;;;;;;;;;;5058176;28;20465;-71
2021/08/13 12:01:01;;;;;;;7.47;6.07;;;;;;;;;;5059186;28;20505;-72
2021/08/13 12:03:29;;;;;;;8.70;6.00;;;;;;;;;;5058367;28;20543;-70
2021/08/13 12:05:57;;;;;;;8.03;5.90;;;;;;;;;;5062331;28;20455;-71
2021/08/13 12:08:24;;;;;;;10.93;5.87;;;;;;;;;;5065381;28;20457;-71
2021/08/13 12:10:56;;;;;;;8.77;7.87;;;;;;;;;;5065381;28;20487;-70
2021/08/13 12:13:33;;;;;;;8.20;6.67;;;;;;;;;;5077288;28;20906;-71
2021/08/13 12:16:04;;;;;;;7.93;6.10;;;;;;;;;;5074705;28;20491;-71
2021/08/13 12:18:33;;;;;;;6.27;5.30;;;;;;;;;;5076962;28;20452;-71
2021/08/13 12:21:05;;;;;;;8.63;7.20;;;;;;;;;;5078775;28;20707;-71
2021/08/13 12:23:37;;;;;;;8.27;6.83;;;;;;;;;;5078779;28;20527;-72
2021/08/13 12:26:05;;;;;;;9.87;7.80;;;;;;;;;;5062244;28;20473;-70
2021/08/13 12:28:36;;;;;;;7.37;6.67;;;;;;;;;;5058108;28;20449;-70
2021/08/13 12:31:05;;;;;;;7.60;6.77;;;;;;;;;;5057748;28;20477;-70
2021/08/13 12:33:33;;;;;;;8.13;6.43;;;;;;;;;;5058111;28;20451;-70
2021/08/13 12:36:01;;;;;;;7.57;5.60;;;;;;;;;;5056364;28;20535;-70
2021/08/13 12:38:37;;;;;;;8.10;6.00;;;;;;;;;;5056321;28;20614;-70
2021/08/13 12:41:06;;;;;;;7.87;6.20;;;;;;;;;;5056823;28;20507;-72
2021/08/13 12:43:36;;;;;;;13.27;7.27;;;;;;;;;;5057734;28;20449;-70
2021/08/13 12:46:04;;;;;;;8.80;6.37;;;;;;;;;;5056212;28;20469;-71
2021/08/13 12:48:35;;;;;;;7.40;5.87;;;;;;;;;;5058050;28;20487;-70
2021/08/13 12:51:12;;;;;;;9.23;6.63;;;;;;;;;;5059018;28;20457;-72
2021/08/13 12:53:50;;;;;;;7.80;5.83;;;;;;;;;;5058525;28;20787;-72
2021/08/13 12:56:29;;;;;;;7.13;5.73;;;;;;;;;;5057949;28;20465;-71
2021/08/13 12:59:18;;;;;;;8.43;7.00;;;;;;;;;;5057517;28;20951;-72
2021/08/13 13:01:57;;;;;;;14.33;6.40;;;;;;;;;;5058641;28;20482;-72
2021/08/13 13:04:49;;;;;;;9.80;5.90;;;;;;;;;;5057683;28;20465;-73
2021/08/13 13:07:29;;;;;;;9.00;6.53;;;;;;;;;;5057348;28;20534;-71
2021/08/13 13:10:01;;;;;;;9.50;5.83;;;;;;;;;;5055881;28;20514;-71
2021/08/13 13:12:32;;;;;;;8.73;6.50;;;;;;;;;;5055599;28;20452;-71
2021/08/13 13:15:03;;;;;;;7.53;6.73;;;;;;;;;;5055959;28;20837;-71
2021/08/13 13:17:31;;;;;;;9.50;6.60;;;;;;;;;;5055694;28;20485;-71
2021/08/13 13:20:12;;;;;;;7.10;6.17;;;;;;;;;;5056678;28;20540;-71
2021/08/13 13:22:45;;;;;;;8.67;5.30;;;;;;;;;;5055987;28;20449;-72
2021/08/13 13:25:17;;;;;;;7.27;5.80;;;;;;;;;;5055858;28;20833;-72
2021/08/13 13:27:55;;;;;;;10.10;7.53;;;;;;;;;;5052610;28;20683;-72
2021/08/13 13:30:32;;;;;;;11.50;5.43;;;;;;;;;;5055440;28;20465;-72
2021/08/13 13:33:02;;;;;;;14.57;6.40;;;;;;;;;;5057013;28;20453;-72
2021/08/13 13:35:30;;;;;;;7.70;6.50;;;;;;;;;;5056171;28;20476;-72
2021/08/13 13:38:01;;;;;;;9.23;6.87;;;;;;;;;;5054883;28;20896;-71
2021/08/13 13:40:29;;;;;;;9.30;6.73;;;;;;;;;;5057468;28;20442;-72
2021/08/13 13:42:57;;;;;;;8.43;6.00;;;;;;;;;;5056401;28;20476;-71
2021/08/13 13:45:29;;;;;;;9.33;6.70;;;;;;;;;;5055641;28;20472;-72
2021/08/13 13:47:58;;;;;;;9.50;6.70;;;;;;;;;;5056541;28;20446;-71
2021/08/13 13:50:27;;;;;;;8.10;6.00;;;;;;;;;;5056805;28;20457;-71
2021/08/13 13:52:55;;;;;;;9.17;6.40;;;;;;;;;;5055972;28;20544;-71
2021/08/13 13:55:24;;;;;;;8.70;6.53;;;;;;;;;;5056337;28;20906;-71
2021/08/13 13:57:53;;;;;;;9.73;7.00;;;;;;;;;;5053852;28;20564;-72
2021/08/13 14:00:21;;;;;;;15.63;6.80;;;;;;;;;;5054699;28;20743;-69
2021/08/13 14:02:48;;;;;;;7.40;5.90;;;;;;;;;;5045414;28;20819;-72
2021/08/13 14:05:27;;;;;;;8.60;6.93;;;;;;;;;;5046877;28;20453;-72
2021/08/13 14:08:09;;;;;;;8.37;7.23;;;;;;;;;;5056251;28;20444;-73
2021/08/13 14:10:39;;;;;;;13.50;8.47;;;;;;;;;;5051793;28;20564;-70
2021/08/13 14:13:10;;;;;;;9.40;6.47;;;;;;;;;;5052518;28;20445;-71
2021/08/13 14:15:38;;;;;;;10.60;6.67;;;;;;;;;;5055720;28;20449;-71
2021/08/13 14:18:06;;;;;;;7.10;6.27;;;;;;;;;;5054642;28;20575;-71
2021/08/13 14:20:40;;;;;;;8.43;6.50;;;;;;;;;;5056930;28;20758;-71
2021/08/13 14:23:12;;;;;;;8.20;5.90;;;;;;;;;;5057574;28;20502;-71
2021/08/13 14:25:46;;;;;;;8.40;6.17;;;;;;;;;;5057465;28;20899;-72
2021/08/13 14:28:19;;;;;;;9.20;7.00;;;;;;;;;;5057523;28;20469;-72
2021/08/13 14:30:47;;;;;;;11.93;6.80;;;;;;;;;;5057138;28;20465;-72
2021/08/13 14:33:16;;;;;;;10.83;7.03;;;;;;;;;;5067649;28;20453;-72
2021/08/13 14:35:46;;;;;;;8.80;5.90;;;;;;;;;;5057029;28;20465;-71
2021/08/13 14:38:15;;;;;;;8.63;6.70;;;;;;;;;;5056109;28;20799;-72
2021/08/13 14:40:44;;;;;;;8.90;5.87;;;;;;;;;;5055404;28;20545;-72
2021/08/13 14:43:15;;;;;;;9.27;6.23;;;;;;;;;;5054804;28;20489;-72
2021/08/13 14:45:46;;;;;;;8.00;5.60;;;;;;;;;;5053708;28;20453;-73
2021/08/13 14:48:32;;;;;;;7.43;5.63;;;;;;;;;;5054055;28;20582;-72
2021/08/13 14:51:05;;;;;;;9.23;5.83;;;;;;;;;;5054095;28;20556;-73
2021/08/13 14:53:38;;;;;;;11.07;7.07;;;;;;;;;;5054548;28;20453;-72
2021/08/13 14:56:06;;;;;;;10.60;5.93;;;;;;;;;;5045869;28;20468;-72
2021/08/13 14:58:34;;;;;;;9.30;6.57;;;;;;;;;;5052540;28;20489;-72
2021/08/13 15:01:03;;;;;;;7.67;5.87;;;;;;;;;;5054379;28;20535;-72